sensor_id;sensor_type;location;lat;lon;timestamp;P1;durP1;ratioP1;P2;durP2;ratioP2
74465;SDS011;62916;50.044;15.938;2023-12-07T00:00:59;13.60;;;8.90;;
74465;SDS011;62916;50.044;15.938;2023-12-07T00:03:30;11.60;;;8.50;;
74465;SDS011;62916;50.044;15.938;2023-12-07T00:06:00;11.30;;;8.70;;
74465;SDS011;62916;50.044;15.938;2023-12-07T00:08:32;11.00;;;8.10;;
74465;SDS011;62916;50.044;15.938;2023-12-07T00:11:03;10.30;;;9.30;;
74465;SDS011;62916;50.044;15.938;2023-12-07T00:13:34;11.90;;;8.60;;
74465;SDS011;62916;50.044;15.938;2023-12-07T00:16:06;10.70;;;7.90;;
74465;SDS011;62916;50.044;15.938;2023-12-07T00:18:37;10.80;;;8.60;;
74465;SDS011;62916;50.044;15.938;2023-12-07T00:21:09;10.70;;;8.00;;
74465;SDS011;62916;50.044;15.938;2023-12-07T00:23:40;10.20;;;7.60;;
74465;SDS011;62916;50.044;15.938;2023-12-07T00:26:10;11.10;;;8.70;;
74465;SDS011;62916;50.044;15.938;2023-12-07T00:28:42;10.00;;;7.70;;
74465;SDS011;62916;50.044;15.938;2023-12-07T00:31:13;10.60;;;8.40;;
74465;SDS011;62916;50.044;15.938;2023-12-07T00:33:43;10.50;;;7.90;;
74465;SDS011;62916;50.044;15.938;2023-12-07T00:36:14;11.60;;;8.20;;
74465;SDS011;62916;50.044;15.938;2023-12-07T00:38:45;9.70;;;7.90;;
74465;SDS011;62916;50.044;15.938;2023-12-07T00:41:16;9.90;;;7.80;;
74465;SDS011;62916;50.044;15.938;2023-12-07T00:43:47;10.40;;;8.80;;
74465;SDS011;62916;50.044;15.938;2023-12-07T00:46:18;9.70;;;7.50;;
74465;SDS011;62916;50.044;15.938;2023-12-07T00:48:49;11.20;;;7.90;;
74465;SDS011;62916;50.044;15.938;2023-12-07T00:51:20;9.90;;;7.90;;
74465;SDS011;62916;50.044;15.938;2023-12-07T00:53:50;10.70;;;8.50;;
74465;SDS011;62916;50.044;15.938;2023-12-07T00:56:21;10.70;;;7.90;;
74465;SDS011;62916;50.044;15.938;2023-12-07T00:58:52;9.80;;;7.70;;
74465;SDS011;62916;50.044;15.938;2023-12-07T01:01:23;9.70;;;7.40;;
74465;SDS011;62916;50.044;15.938;2023-12-07T01:03:54;11.20;;;7.90;;
74465;SDS011;62916;50.044;15.938;2023-12-07T01:06:25;10.50;;;7.90;;
74465;SDS011;62916;50.044;15.938;2023-12-07T01:08:56;9.10;;;7.60;;
74465;SDS011;62916;50.044;15.938;2023-12-07T01:11:27;9.80;;;8.00;;
74465;SDS011;62916;50.044;15.938;2023-12-07T01:13:58;10.40;;;7.60;;
74465;SDS011;62916;50.044;15.938;2023-12-07T01:16:29;9.90;;;7.50;;
74465;SDS011;62916;50.044;15.938;2023-12-07T01:19:00;10.10;;;7.70;;
74465;SDS011;62916;50.044;15.938;2023-12-07T01:21:31;10.00;;;7.70;;
74465;SDS011;62916;50.044;15.938;2023-12-07T01:24:01;10.50;;;7.60;;
74465;SDS011;62916;50.044;15.938;2023-12-07T01:26:42;9.90;;;7.60;;
74465;SDS011;62916;50.044;15.938;2023-12-07T01:29:13;10.80;;;8.20;;
74465;SDS011;62916;50.044;15.938;2023-12-07T01:31:45;11.60;;;7.10;;
74465;SDS011;62916;50.044;15.938;2023-12-07T01:34:16;10.10;;;8.00;;
74465;SDS011;62916;50.044;15.938;2023-12-07T01:36:47;10.30;;;7.70;;
74465;SDS011;62916;50.044;15.938;2023-12-07T01:39:18;10.60;;;7.80;;
74465;SDS011;62916;50.044;15.938;2023-12-07T01:41:49;7.90;;;6.90;;
74465;SDS011;62916;50.044;15.938;2023-12-07T01:44:20;10.00;;;7.40;;
74465;SDS011;62916;50.044;15.938;2023-12-07T01:46:51;9.60;;;7.60;;
74465;SDS011;62916;50.044;15.938;2023-12-07T01:49:22;10.90;;;7.50;;
74465;SDS011;62916;50.044;15.938;2023-12-07T01:51:53;9.80;;;7.50;;
74465;SDS011;62916;50.044;15.938;2023-12-07T01:54:25;10.00;;;7.20;;
74465;SDS011;62916;50.044;15.938;2023-12-07T01:56:56;9.20;;;7.20;;
74465;SDS011;62916;50.044;15.938;2023-12-07T01:59:27;10.20;;;7.40;;
74465;SDS011;62916;50.044;15.938;2023-12-07T02:01:59;10.90;;;8.50;;
74465;SDS011;62916;50.044;15.938;2023-12-07T02:04:30;10.00;;;7.80;;
74465;SDS011;62916;50.044;15.938;2023-12-07T02:07:01;10.30;;;7.60;;
74465;SDS011;62916;50.044;15.938;2023-12-07T02:09:33;9.80;;;7.20;;
74465;SDS011;62916;50.044;15.938;2023-12-07T02:12:04;9.80;;;7.60;;
74465;SDS011;62916;50.044;15.938;2023-12-07T02:14:36;9.40;;;7.20;;
74465;SDS011;62916;50.044;15.938;2023-12-07T02:17:08;9.50;;;7.50;;
74465;SDS011;62916;50.044;15.938;2023-12-07T02:19:49;7.90;;;6.60;;
74465;SDS011;62916;50.044;15.938;2023-12-07T02:22:27;9.20;;;7.30;;
74465;SDS011;62916;50.044;15.938;2023-12-07T02:25:08;9.20;;;6.70;;
74465;SDS011;62916;50.044;15.938;2023-12-07T02:27:42;8.70;;;7.20;;
74465;SDS011;62916;50.044;15.938;2023-12-07T02:30:14;10.40;;;7.50;;
74465;SDS011;62916;50.044;15.938;2023-12-07T02:32:45;7.70;;;6.50;;
74465;SDS011;62916;50.044;15.938;2023-12-07T02:35:17;10.40;;;7.00;;
74465;SDS011;62916;50.044;15.938;2023-12-07T02:37:48;9.10;;;7.00;;
74465;SDS011;62916;50.044;15.938;2023-12-07T02:40:20;10.70;;;7.40;;
74465;SDS011;62916;50.044;15.938;2023-12-07T02:42:54;9.90;;;7.40;;
74465;SDS011;62916;50.044;15.938;2023-12-07T02:45:25;10.60;;;7.80;;
74465;SDS011;62916;50.044;15.938;2023-12-07T02:47:57;10.10;;;7.10;;
74465;SDS011;62916;50.044;15.938;2023-12-07T02:50:28;9.50;;;7.20;;
74465;SDS011;62916;50.044;15.938;2023-12-07T02:52:58;9.80;;;7.80;;
74465;SDS011;62916;50.044;15.938;2023-12-07T02:55:32;8.90;;;7.10;;
74465;SDS011;62916;50.044;15.938;2023-12-07T02:58:03;8.40;;;6.80;;
74465;SDS011;62916;50.044;15.938;2023-12-07T03:00:34;10.70;;;7.20;;
74465;SDS011;62916;50.044;15.938;2023-12-07T03:03:05;10.20;;;6.90;;
74465;SDS011;62916;50.044;15.938;2023-12-07T03:05:36;10.00;;;7.70;;
74465;SDS011;62916;50.044;15.938;2023-12-07T03:08:07;9.70;;;7.60;;
74465;SDS011;62916;50.044;15.938;2023-12-07T03:10:38;8.80;;;6.50;;
74465;SDS011;62916;50.044;15.938;2023-12-07T03:13:09;8.90;;;6.30;;
74465;SDS011;62916;50.044;15.938;2023-12-07T03:15:40;8.40;;;7.00;;
74465;SDS011;62916;50.044;15.938;2023-12-07T03:18:10;9.90;;;7.20;;
74465;SDS011;62916;50.044;15.938;2023-12-07T03:20:42;9.30;;;7.50;;
74465;SDS011;62916;50.044;15.938;2023-12-07T03:23:13;9.90;;;6.60;;
74465;SDS011;62916;50.044;15.938;2023-12-07T03:25:44;9.20;;;6.70;;
74465;SDS011;62916;50.044;15.938;2023-12-07T03:28:15;9.30;;;6.80;;
74465;SDS011;62916;50.044;15.938;2023-12-07T03:30:46;9.40;;;7.40;;
74465;SDS011;62916;50.044;15.938;2023-12-07T03:33:17;8.70;;;6.60;;
74465;SDS011;62916;50.044;15.938;2023-12-07T03:35:48;8.10;;;6.70;;
74465;SDS011;62916;50.044;15.938;2023-12-07T03:38:19;7.90;;;6.60;;
74465;SDS011;62916;50.044;15.938;2023-12-07T03:40:50;8.40;;;7.00;;
74465;SDS011;62916;50.044;15.938;2023-12-07T03:43:20;8.80;;;6.50;;
74465;SDS011;62916;50.044;15.938;2023-12-07T03:45:51;9.40;;;7.10;;
74465;SDS011;62916;50.044;15.938;2023-12-07T03:48:23;9.20;;;6.80;;
74465;SDS011;62916;50.044;15.938;2023-12-07T03:50:54;9.30;;;6.90;;
74465;SDS011;62916;50.044;15.938;2023-12-07T03:53:25;9.30;;;7.10;;
74465;SDS011;62916;50.044;15.938;2023-12-07T03:55:56;9.90;;;7.00;;
74465;SDS011;62916;50.044;15.938;2023-12-07T03:58:27;8.60;;;7.30;;
74465;SDS011;62916;50.044;15.938;2023-12-07T04:00:58;8.20;;;6.60;;
74465;SDS011;62916;50.044;15.938;2023-12-07T04:03:29;9.50;;;7.70;;
74465;SDS011;62916;50.044;15.938;2023-12-07T04:06:00;9.30;;;6.90;;
74465;SDS011;62916;50.044;15.938;2023-12-07T04:08:32;9.70;;;6.90;;
74465;SDS011;62916;50.044;15.938;2023-12-07T04:11:02;9.10;;;6.80;;
74465;SDS011;62916;50.044;15.938;2023-12-07T04:13:34;9.90;;;6.70;;
74465;SDS011;62916;50.044;15.938;2023-12-07T04:16:06;8.90;;;7.30;;
74465;SDS011;62916;50.044;15.938;2023-12-07T04:18:37;10.10;;;7.00;;
74465;SDS011;62916;50.044;15.938;2023-12-07T04:21:08;7.90;;;6.00;;
74465;SDS011;62916;50.044;15.938;2023-12-07T04:23:39;9.50;;;6.50;;
74465;SDS011;62916;50.044;15.938;2023-12-07T04:26:10;10.00;;;7.60;;
74465;SDS011;62916;50.044;15.938;2023-12-07T04:28:40;9.60;;;6.60;;
74465;SDS011;62916;50.044;15.938;2023-12-07T04:31:11;8.90;;;6.40;;
74465;SDS011;62916;50.044;15.938;2023-12-07T04:33:42;9.70;;;6.90;;
74465;SDS011;62916;50.044;15.938;2023-12-07T04:36:13;8.40;;;6.80;;
74465;SDS011;62916;50.044;15.938;2023-12-07T04:38:45;10.00;;;7.50;;
74465;SDS011;62916;50.044;15.938;2023-12-07T04:41:17;9.20;;;6.50;;
74465;SDS011;62916;50.044;15.938;2023-12-07T04:43:48;8.40;;;6.40;;
74465;SDS011;62916;50.044;15.938;2023-12-07T04:46:19;8.40;;;6.10;;
74465;SDS011;62916;50.044;15.938;2023-12-07T04:48:51;8.60;;;6.40;;
74465;SDS011;62916;50.044;15.938;2023-12-07T04:51:22;9.40;;;6.10;;
74465;SDS011;62916;50.044;15.938;2023-12-07T04:53:53;8.20;;;6.50;;
74465;SDS011;62916;50.044;15.938;2023-12-07T04:56:40;8.50;;;6.00;;
74465;SDS011;62916;50.044;15.938;2023-12-07T04:59:11;8.80;;;6.50;;
74465;SDS011;62916;50.044;15.938;2023-12-07T05:01:43;7.80;;;6.10;;
74465;SDS011;62916;50.044;15.938;2023-12-07T05:04:14;8.50;;;6.20;;
74465;SDS011;62916;50.044;15.938;2023-12-07T05:06:45;8.90;;;6.80;;
74465;SDS011;62916;50.044;15.938;2023-12-07T05:09:16;8.70;;;6.30;;
74465;SDS011;62916;50.044;15.938;2023-12-07T05:11:47;8.70;;;6.60;;
74465;SDS011;62916;50.044;15.938;2023-12-07T05:14:18;8.20;;;6.40;;
74465;SDS011;62916;50.044;15.938;2023-12-07T05:16:49;9.40;;;6.60;;
74465;SDS011;62916;50.044;15.938;2023-12-07T05:19:21;10.90;;;7.00;;
74465;SDS011;62916;50.044;15.938;2023-12-07T05:21:52;11.50;;;7.00;;
74465;SDS011;62916;50.044;15.938;2023-12-07T05:24:23;11.30;;;7.70;;
74465;SDS011;62916;50.044;15.938;2023-12-07T05:26:54;18.70;;;9.00;;
74465;SDS011;62916;50.044;15.938;2023-12-07T05:29:25;21.40;;;9.10;;
74465;SDS011;62916;50.044;15.938;2023-12-07T05:31:55;20.30;;;10.60;;
74465;SDS011;62916;50.044;15.938;2023-12-07T05:34:27;22.80;;;9.70;;
74465;SDS011;62916;50.044;15.938;2023-12-07T05:36:57;18.80;;;7.80;;
74465;SDS011;62916;50.044;15.938;2023-12-07T05:39:28;18.60;;;9.20;;
74465;SDS011;62916;50.044;15.938;2023-12-07T05:41:59;21.00;;;8.80;;
74465;SDS011;62916;50.044;15.938;2023-12-07T05:44:32;23.90;;;9.90;;
74465;SDS011;62916;50.044;15.938;2023-12-07T05:47:03;19.30;;;8.90;;
74465;SDS011;62916;50.044;15.938;2023-12-07T05:49:35;18.40;;;8.60;;
74465;SDS011;62916;50.044;15.938;2023-12-07T05:52:06;24.00;;;8.70;;
74465;SDS011;62916;50.044;15.938;2023-12-07T05:54:38;15.30;;;8.60;;
74465;SDS011;62916;50.044;15.938;2023-12-07T05:57:11;17.00;;;8.30;;
74465;SDS011;62916;50.044;15.938;2023-12-07T05:59:42;22.00;;;9.10;;
74465;SDS011;62916;50.044;15.938;2023-12-07T06:02:14;18.20;;;7.80;;
74465;SDS011;62916;50.044;15.938;2023-12-07T06:04:45;20.40;;;8.90;;
74465;SDS011;62916;50.044;15.938;2023-12-07T06:07:16;16.50;;;7.90;;
74465;SDS011;62916;50.044;15.938;2023-12-07T06:09:47;15.00;;;8.00;;
74465;SDS011;62916;50.044;15.938;2023-12-07T06:12:18;16.00;;;7.70;;
74465;SDS011;62916;50.044;15.938;2023-12-07T06:14:50;15.90;;;8.60;;
74465;SDS011;62916;50.044;15.938;2023-12-07T06:17:21;15.30;;;8.70;;
74465;SDS011;62916;50.044;15.938;2023-12-07T06:19:52;14.40;;;7.50;;
74465;SDS011;62916;50.044;15.938;2023-12-07T06:22:23;12.80;;;7.30;;
74465;SDS011;62916;50.044;15.938;2023-12-07T06:24:54;16.10;;;8.10;;
74465;SDS011;62916;50.044;15.938;2023-12-07T06:27:25;15.00;;;7.60;;
74465;SDS011;62916;50.044;15.938;2023-12-07T06:29:56;15.30;;;8.30;;
74465;SDS011;62916;50.044;15.938;2023-12-07T06:32:27;11.20;;;7.20;;
74465;SDS011;62916;50.044;15.938;2023-12-07T06:34:58;11.90;;;7.20;;
74465;SDS011;62916;50.044;15.938;2023-12-07T06:37:32;13.00;;;7.80;;
74465;SDS011;62916;50.044;15.938;2023-12-07T06:40:03;14.10;;;7.60;;
74465;SDS011;62916;50.044;15.938;2023-12-07T06:42:37;14.80;;;7.20;;
74465;SDS011;62916;50.044;15.938;2023-12-07T06:45:09;13.10;;;7.30;;
74465;SDS011;62916;50.044;15.938;2023-12-07T06:47:42;12.40;;;7.00;;
74465;SDS011;62916;50.044;15.938;2023-12-07T06:50:13;10.70;;;6.80;;
74465;SDS011;62916;50.044;15.938;2023-12-07T06:52:44;13.90;;;6.70;;
74465;SDS011;62916;50.044;15.938;2023-12-07T06:55:15;12.20;;;7.30;;
74465;SDS011;62916;50.044;15.938;2023-12-07T06:57:47;12.30;;;8.40;;
74465;SDS011;62916;50.044;15.938;2023-12-07T07:00:19;14.00;;;7.50;;
74465;SDS011;62916;50.044;15.938;2023-12-07T07:02:50;13.80;;;7.20;;
74465;SDS011;62916;50.044;15.938;2023-12-07T07:05:21;12.60;;;6.50;;
74465;SDS011;62916;50.044;15.938;2023-12-07T07:07:52;11.60;;;6.60;;
74465;SDS011;62916;50.044;15.938;2023-12-07T07:10:23;11.70;;;7.40;;
74465;SDS011;62916;50.044;15.938;2023-12-07T07:12:54;11.60;;;6.90;;
74465;SDS011;62916;50.044;15.938;2023-12-07T07:15:28;13.10;;;7.20;;
74465;SDS011;62916;50.044;15.938;2023-12-07T07:17:59;11.70;;;6.60;;
74465;SDS011;62916;50.044;15.938;2023-12-07T07:20:30;12.60;;;6.90;;
74465;SDS011;62916;50.044;15.938;2023-12-07T07:23:01;11.30;;;6.00;;
74465;SDS011;62916;50.044;15.938;2023-12-07T07:25:32;11.00;;;6.40;;
74465;SDS011;62916;50.044;15.938;2023-12-07T07:28:03;13.90;;;6.80;;
74465;SDS011;62916;50.044;15.938;2023-12-07T07:30:36;11.00;;;6.90;;
74465;SDS011;62916;50.044;15.938;2023-12-07T07:33:07;10.90;;;7.10;;
74465;SDS011;62916;50.044;15.938;2023-12-07T07:35:38;12.50;;;6.80;;
74465;SDS011;62916;50.044;15.938;2023-12-07T07:38:09;12.00;;;6.90;;
74465;SDS011;62916;50.044;15.938;2023-12-07T07:40:42;11.40;;;6.90;;
74465;SDS011;62916;50.044;15.938;2023-12-07T07:43:13;10.70;;;6.50;;
74465;SDS011;62916;50.044;15.938;2023-12-07T07:45:44;10.40;;;5.90;;
74465;SDS011;62916;50.044;15.938;2023-12-07T07:48:15;10.70;;;7.00;;
74465;SDS011;62916;50.044;15.938;2023-12-07T07:50:46;9.90;;;6.60;;
74465;SDS011;62916;50.044;15.938;2023-12-07T07:53:17;10.70;;;6.80;;
74465;SDS011;62916;50.044;15.938;2023-12-07T07:55:48;10.10;;;6.50;;
74465;SDS011;62916;50.044;15.938;2023-12-07T07:58:19;11.00;;;6.20;;
74465;SDS011;62916;50.044;15.938;2023-12-07T08:00:50;10.30;;;6.50;;
74465;SDS011;62916;50.044;15.938;2023-12-07T08:03:21;10.10;;;6.60;;
74465;SDS011;62916;50.044;15.938;2023-12-07T08:05:52;9.30;;;6.20;;
74465;SDS011;62916;50.044;15.938;2023-12-07T08:08:23;8.60;;;7.10;;
74465;SDS011;62916;50.044;15.938;2023-12-07T08:10:55;11.40;;;6.40;;
74465;SDS011;62916;50.044;15.938;2023-12-07T08:13:26;11.40;;;7.00;;
74465;SDS011;62916;50.044;15.938;2023-12-07T08:15:57;9.70;;;5.80;;
74465;SDS011;62916;50.044;15.938;2023-12-07T08:18:28;9.40;;;6.00;;
74465;SDS011;62916;50.044;15.938;2023-12-07T08:20:59;9.70;;;6.00;;
74465;SDS011;62916;50.044;15.938;2023-12-07T08:23:30;9.30;;;5.90;;
74465;SDS011;62916;50.044;15.938;2023-12-07T08:26:01;10.60;;;6.60;;
74465;SDS011;62916;50.044;15.938;2023-12-07T08:28:32;10.10;;;6.50;;
74465;SDS011;62916;50.044;15.938;2023-12-07T08:31:04;9.00;;;6.40;;
74465;SDS011;62916;50.044;15.938;2023-12-07T08:33:36;11.10;;;6.50;;
74465;SDS011;62916;50.044;15.938;2023-12-07T08:36:09;9.20;;;6.20;;
74465;SDS011;62916;50.044;15.938;2023-12-07T08:38:40;10.50;;;6.10;;
74465;SDS011;62916;50.044;15.938;2023-12-07T08:41:11;8.50;;;5.80;;
74465;SDS011;62916;50.044;15.938;2023-12-07T08:43:42;8.80;;;6.00;;
74465;SDS011;62916;50.044;15.938;2023-12-07T08:46:13;7.80;;;5.70;;
74465;SDS011;62916;50.044;15.938;2023-12-07T08:48:44;8.70;;;6.00;;
74465;SDS011;62916;50.044;15.938;2023-12-07T08:51:15;10.00;;;7.10;;
74465;SDS011;62916;50.044;15.938;2023-12-07T08:53:46;9.50;;;6.70;;
74465;SDS011;62916;50.044;15.938;2023-12-07T08:56:21;8.20;;;5.70;;
74465;SDS011;62916;50.044;15.938;2023-12-07T08:58:53;9.90;;;6.30;;
74465;SDS011;62916;50.044;15.938;2023-12-07T09:01:24;10.50;;;5.90;;
74465;SDS011;62916;50.044;15.938;2023-12-07T09:04:00;10.10;;;6.10;;
74465;SDS011;62916;50.044;15.938;2023-12-07T09:06:31;8.90;;;5.90;;
74465;SDS011;62916;50.044;15.938;2023-12-07T09:09:02;9.10;;;6.00;;
74465;SDS011;62916;50.044;15.938;2023-12-07T09:11:34;8.40;;;6.10;;
74465;SDS011;62916;50.044;15.938;2023-12-07T09:14:05;9.10;;;6.30;;
74465;SDS011;62916;50.044;15.938;2023-12-07T09:16:36;8.60;;;6.10;;
74465;SDS011;62916;50.044;15.938;2023-12-07T09:19:13;9.00;;;5.80;;
74465;SDS011;62916;50.044;15.938;2023-12-07T09:21:45;10.10;;;5.90;;
74465;SDS011;62916;50.044;15.938;2023-12-07T09:24:16;9.80;;;6.00;;
74465;SDS011;62916;50.044;15.938;2023-12-07T09:26:49;12.10;;;6.50;;
74465;SDS011;62916;50.044;15.938;2023-12-07T09:29:20;9.00;;;6.20;;
74465;SDS011;62916;50.044;15.938;2023-12-07T09:31:51;9.50;;;6.20;;
74465;SDS011;62916;50.044;15.938;2023-12-07T09:34:22;9.70;;;6.00;;
74465;SDS011;62916;50.044;15.938;2023-12-07T09:37:06;8.20;;;6.10;;
74465;SDS011;62916;50.044;15.938;2023-12-07T09:39:38;9.30;;;6.20;;
74465;SDS011;62916;50.044;15.938;2023-12-07T09:42:08;9.10;;;6.00;;
74465;SDS011;62916;50.044;15.938;2023-12-07T09:44:39;8.50;;;6.20;;
74465;SDS011;62916;50.044;15.938;2023-12-07T09:47:11;8.30;;;5.80;;
74465;SDS011;62916;50.044;15.938;2023-12-07T09:49:54;8.90;;;6.00;;
74465;SDS011;62916;50.044;15.938;2023-12-07T09:52:26;9.50;;;6.30;;
74465;SDS011;62916;50.044;15.938;2023-12-07T09:54:57;8.30;;;5.90;;
74465;SDS011;62916;50.044;15.938;2023-12-07T09:57:31;10.20;;;6.00;;
74465;SDS011;62916;50.044;15.938;2023-12-07T10:00:03;9.00;;;5.80;;
74465;SDS011;62916;50.044;15.938;2023-12-07T10:02:38;9.10;;;5.60;;
74465;SDS011;62916;50.044;15.938;2023-12-07T10:05:11;8.30;;;5.80;;
74465;SDS011;62916;50.044;15.938;2023-12-07T10:07:45;9.50;;;5.50;;
74465;SDS011;62916;50.044;15.938;2023-12-07T10:10:18;8.90;;;6.10;;
74465;SDS011;62916;50.044;15.938;2023-12-07T10:12:51;8.20;;;5.10;;
74465;SDS011;62916;50.044;15.938;2023-12-07T10:15:23;8.90;;;5.80;;
74465;SDS011;62916;50.044;15.938;2023-12-07T10:17:56;9.00;;;5.70;;
74465;SDS011;62916;50.044;15.938;2023-12-07T10:20:29;9.60;;;5.70;;
74465;SDS011;62916;50.044;15.938;2023-12-07T10:23:03;10.10;;;5.80;;
74465;SDS011;62916;50.044;15.938;2023-12-07T10:25:37;8.50;;;5.70;;
74465;SDS011;62916;50.044;15.938;2023-12-07T10:28:10;6.50;;;5.30;;
74465;SDS011;62916;50.044;15.938;2023-12-07T10:30:42;8.70;;;5.90;;
74465;SDS011;62916;50.044;15.938;2023-12-07T10:33:13;10.40;;;6.30;;
74465;SDS011;62916;50.044;15.938;2023-12-07T10:35:45;8.90;;;5.60;;
74465;SDS011;62916;50.044;15.938;2023-12-07T10:38:17;7.80;;;6.40;;
74465;SDS011;62916;50.044;15.938;2023-12-07T10:40:48;8.20;;;5.90;;
74465;SDS011;62916;50.044;15.938;2023-12-07T10:43:30;8.50;;;6.10;;
74465;SDS011;62916;50.044;15.938;2023-12-07T10:46:06;8.10;;;5.60;;
74465;SDS011;62916;50.044;15.938;2023-12-07T10:48:37;8.20;;;5.40;;
74465;SDS011;62916;50.044;15.938;2023-12-07T10:51:09;8.50;;;5.70;;
74465;SDS011;62916;50.044;15.938;2023-12-07T10:53:44;8.80;;;5.80;;
74465;SDS011;62916;50.044;15.938;2023-12-07T10:56:19;9.30;;;6.00;;
74465;SDS011;62916;50.044;15.938;2023-12-07T10:58:55;9.00;;;5.70;;
74465;SDS011;62916;50.044;15.938;2023-12-07T11:01:27;8.40;;;5.80;;
74465;SDS011;62916;50.044;15.938;2023-12-07T11:04:00;9.40;;;6.30;;
74465;SDS011;62916;50.044;15.938;2023-12-07T11:06:32;9.90;;;6.10;;
74465;SDS011;62916;50.044;15.938;2023-12-07T11:09:05;9.40;;;6.00;;
74465;SDS011;62916;50.044;15.938;2023-12-07T11:11:44;8.10;;;5.00;;
74465;SDS011;62916;50.044;15.938;2023-12-07T11:14:20;10.70;;;5.80;;
74465;SDS011;62916;50.044;15.938;2023-12-07T11:16:52;7.60;;;5.60;;
74465;SDS011;62916;50.044;15.938;2023-12-07T11:22:17;6.80;;;5.20;;
74465;SDS011;62916;50.044;15.938;2023-12-07T11:24:53;8.60;;;5.70;;
74465;SDS011;62916;50.044;15.938;2023-12-07T11:27:30;8.00;;;5.40;;
74465;SDS011;62916;50.044;15.938;2023-12-07T11:30:03;8.60;;;5.40;;
74465;SDS011;62916;50.044;15.938;2023-12-07T11:32:37;9.30;;;5.80;;
74465;SDS011;62916;50.044;15.938;2023-12-07T11:35:12;7.40;;;5.50;;
74465;SDS011;62916;50.044;15.938;2023-12-07T11:38:02;9.40;;;5.80;;
74465;SDS011;62916;50.044;15.938;2023-12-07T11:40:38;9.00;;;5.60;;
74465;SDS011;62916;50.044;15.938;2023-12-07T11:43:17;8.30;;;5.60;;
74465;SDS011;62916;50.044;15.938;2023-12-07T11:46:00;8.60;;;5.70;;
74465;SDS011;62916;50.044;15.938;2023-12-07T11:48:31;7.40;;;5.60;;
74465;SDS011;62916;50.044;15.938;2023-12-07T11:51:03;8.90;;;5.70;;
74465;SDS011;62916;50.044;15.938;2023-12-07T11:53:35;10.20;;;6.00;;
74465;SDS011;62916;50.044;15.938;2023-12-07T11:56:08;8.00;;;5.60;;
74465;SDS011;62916;50.044;15.938;2023-12-07T11:58:41;6.80;;;5.40;;
74465;SDS011;62916;50.044;15.938;2023-12-07T12:01:13;9.50;;;6.30;;
74465;SDS011;62916;50.044;15.938;2023-12-07T12:03:45;7.40;;;5.30;;
74465;SDS011;62916;50.044;15.938;2023-12-07T12:06:17;8.40;;;5.60;;
74465;SDS011;62916;50.044;15.938;2023-12-07T12:08:48;7.10;;;5.30;;
74465;SDS011;62916;50.044;15.938;2023-12-07T12:11:20;7.80;;;5.70;;
74465;SDS011;62916;50.044;15.938;2023-12-07T12:13:51;9.60;;;4.90;;
74465;SDS011;62916;50.044;15.938;2023-12-07T12:16:23;7.70;;;5.30;;
74465;SDS011;62916;50.044;15.938;2023-12-07T12:18:54;7.00;;;5.60;;
74465;SDS011;62916;50.044;15.938;2023-12-07T12:21:26;7.20;;;5.00;;
74465;SDS011;62916;50.044;15.938;2023-12-07T12:23:57;9.10;;;5.50;;
74465;SDS011;62916;50.044;15.938;2023-12-07T12:26:28;8.30;;;5.70;;
74465;SDS011;62916;50.044;15.938;2023-12-07T12:29:00;6.80;;;5.10;;
74465;SDS011;62916;50.044;15.938;2023-12-07T12:31:31;7.30;;;5.00;;
74465;SDS011;62916;50.044;15.938;2023-12-07T12:34:03;8.70;;;5.20;;
74465;SDS011;62916;50.044;15.938;2023-12-07T12:36:40;8.10;;;6.00;;
74465;SDS011;62916;50.044;15.938;2023-12-07T12:39:11;8.50;;;5.90;;
74465;SDS011;62916;50.044;15.938;2023-12-07T12:41:55;7.40;;;5.30;;
74465;SDS011;62916;50.044;15.938;2023-12-07T12:44:26;8.90;;;5.20;;
74465;SDS011;62916;50.044;15.938;2023-12-07T12:47:05;7.60;;;5.20;;
74465;SDS011;62916;50.044;15.938;2023-12-07T12:49:38;8.10;;;5.40;;
74465;SDS011;62916;50.044;15.938;2023-12-07T12:52:14;7.80;;;5.30;;
74465;SDS011;62916;50.044;15.938;2023-12-07T12:54:46;8.00;;;5.00;;
74465;SDS011;62916;50.044;15.938;2023-12-07T12:57:18;7.40;;;4.70;;
74465;SDS011;62916;50.044;15.938;2023-12-07T12:59:49;7.60;;;5.80;;
74465;SDS011;62916;50.044;15.938;2023-12-07T13:02:21;8.80;;;5.30;;
74465;SDS011;62916;50.044;15.938;2023-12-07T13:04:52;7.60;;;5.20;;
74465;SDS011;62916;50.044;15.938;2023-12-07T13:07:24;6.70;;;4.90;;
74465;SDS011;62916;50.044;15.938;2023-12-07T13:09:55;8.10;;;4.70;;
74465;SDS011;62916;50.044;15.938;2023-12-07T13:12:27;7.80;;;5.40;;
74465;SDS011;62916;50.044;15.938;2023-12-07T13:15:02;7.60;;;4.90;;
74465;SDS011;62916;50.044;15.938;2023-12-07T13:17:35;8.40;;;5.40;;
74465;SDS011;62916;50.044;15.938;2023-12-07T13:20:07;6.00;;;4.90;;
74465;SDS011;62916;50.044;15.938;2023-12-07T13:22:39;6.50;;;5.30;;
74465;SDS011;62916;50.044;15.938;2023-12-07T13:25:11;6.80;;;4.80;;
74465;SDS011;62916;50.044;15.938;2023-12-07T13:27:43;7.30;;;5.50;;
74465;SDS011;62916;50.044;15.938;2023-12-07T13:30:14;6.90;;;4.80;;
74465;SDS011;62916;50.044;15.938;2023-12-07T13:32:45;7.70;;;5.30;;
74465;SDS011;62916;50.044;15.938;2023-12-07T13:35:17;8.80;;;5.10;;
74465;SDS011;62916;50.044;15.938;2023-12-07T13:37:49;8.20;;;5.10;;
74465;SDS011;62916;50.044;15.938;2023-12-07T13:40:20;6.30;;;4.90;;
74465;SDS011;62916;50.044;15.938;2023-12-07T13:42:52;6.00;;;4.30;;
74465;SDS011;62916;50.044;15.938;2023-12-07T13:45:23;8.20;;;5.00;;
74465;SDS011;62916;50.044;15.938;2023-12-07T13:47:56;7.40;;;4.70;;
74465;SDS011;62916;50.044;15.938;2023-12-07T13:50:27;8.30;;;5.10;;
74465;SDS011;62916;50.044;15.938;2023-12-07T13:52:58;7.50;;;5.00;;
74465;SDS011;62916;50.044;15.938;2023-12-07T13:55:29;6.60;;;4.80;;
74465;SDS011;62916;50.044;15.938;2023-12-07T13:58:00;7.50;;;5.10;;
74465;SDS011;62916;50.044;15.938;2023-12-07T14:00:32;7.60;;;5.00;;
74465;SDS011;62916;50.044;15.938;2023-12-07T14:03:03;6.90;;;4.70;;
74465;SDS011;62916;50.044;15.938;2023-12-07T14:05:34;6.30;;;4.80;;
74465;SDS011;62916;50.044;15.938;2023-12-07T14:08:05;6.00;;;4.80;;
74465;SDS011;62916;50.044;15.938;2023-12-07T14:10:37;8.60;;;5.40;;
74465;SDS011;62916;50.044;15.938;2023-12-07T14:13:08;7.30;;;5.50;;
74465;SDS011;62916;50.044;15.938;2023-12-07T14:15:40;6.70;;;4.70;;
74465;SDS011;62916;50.044;15.938;2023-12-07T14:18:12;6.80;;;5.40;;
74465;SDS011;62916;50.044;15.938;2023-12-07T14:20:44;6.80;;;4.90;;
74465;SDS011;62916;50.044;15.938;2023-12-07T14:23:34;7.60;;;4.60;;
74465;SDS011;62916;50.044;15.938;2023-12-07T14:26:06;7.30;;;4.90;;
74465;SDS011;62916;50.044;15.938;2023-12-07T14:28:38;6.70;;;5.20;;
74465;SDS011;62916;50.044;15.938;2023-12-07T14:31:10;6.70;;;4.70;;
74465;SDS011;62916;50.044;15.938;2023-12-07T14:33:44;6.10;;;4.70;;
74465;SDS011;62916;50.044;15.938;2023-12-07T14:36:17;5.70;;;4.80;;
74465;SDS011;62916;50.044;15.938;2023-12-07T14:38:48;6.80;;;5.00;;
74465;SDS011;62916;50.044;15.938;2023-12-07T14:41:19;6.60;;;5.30;;
74465;SDS011;62916;50.044;15.938;2023-12-07T14:43:51;7.80;;;4.40;;
74465;SDS011;62916;50.044;15.938;2023-12-07T14:46:22;8.10;;;4.90;;
74465;SDS011;62916;50.044;15.938;2023-12-07T14:48:53;6.70;;;4.70;;
74465;SDS011;62916;50.044;15.938;2023-12-07T14:51:24;7.00;;;5.50;;
74465;SDS011;62916;50.044;15.938;2023-12-07T14:53:55;8.00;;;4.90;;
74465;SDS011;62916;50.044;15.938;2023-12-07T14:56:27;5.60;;;4.40;;
74465;SDS011;62916;50.044;15.938;2023-12-07T14:58:58;6.90;;;5.00;;
74465;SDS011;62916;50.044;15.938;2023-12-07T15:01:30;9.00;;;5.10;;